createdAt,value
2023-01-27T00:00:59.013Z,4.90
2023-01-27T00:03:25.827Z,4.90
2023-01-27T00:05:52.599Z,4.90
2023-01-27T00:08:19.464Z,4.90
2023-01-27T00:10:46.245Z,4.90
2023-01-27T00:13:28.610Z,4.90
2023-01-27T00:15:55.790Z,4.90
2023-01-27T00:18:23.623Z,5.00
2023-01-27T00:21:09.659Z,4.90
2023-01-27T00:23:55.363Z,4.90
2023-01-27T00:26:22.660Z,4.90
2023-01-27T00:28:49.441Z,4.90
2023-01-27T00:31:36.017Z,5.00
2023-01-27T00:34:09.131Z,4.90
2023-01-27T00:36:37.035Z,4.90
2023-01-27T00:39:04.744Z,5.00
2023-01-27T00:41:31.599Z,5.00
2023-01-27T00:43:58.549Z,5.00
2023-01-27T00:46:25.544Z,5.00
2023-01-27T00:48:52.694Z,5.00
2023-01-27T00:51:20.098Z,5.00
2023-01-27T00:53:47.175Z,5.00
2023-01-27T00:56:13.969Z,5.00
2023-01-27T00:58:42.145Z,5.00
2023-01-27T01:01:10.684Z,5.00
2023-01-27T01:03:37.516Z,5.00
2023-01-27T01:06:06.135Z,5.00
2023-01-27T01:08:33.606Z,5.00
2023-01-27T01:11:02.997Z,5.00
2023-01-27T01:13:30.098Z,5.00
2023-01-27T01:15:57.337Z,5.00
2023-01-27T01:18:24.282Z,5.00
2023-01-27T01:20:51.592Z,5.00
2023-01-27T01:23:18.691Z,5.00
2023-01-27T01:25:52.435Z,5.00
2023-01-27T01:28:19.255Z,5.00
2023-01-27T01:30:46.302Z,5.10
2023-01-27T01:33:13.787Z,5.10
2023-01-27T01:35:40.556Z,5.10
2023-01-27T01:38:08.827Z,5.00
2023-01-27T01:40:39.861Z,5.00
2023-01-27T01:43:11.965Z,5.00
2023-01-27T01:45:47.828Z,5.00
2023-01-27T01:48:26.170Z,5.00
2023-01-27T01:50:58.828Z,5.10
2023-01-27T01:53:29.946Z,5.00
2023-01-27T01:55:58.924Z,5.10
2023-01-27T01:58:28.096Z,5.10
2023-01-27T02:00:56.029Z,5.00
2023-01-27T02:03:24.926Z,5.00
2023-01-27T02:05:54.598Z,5.00
2023-01-27T02:08:24.535Z,5.00
2023-01-27T02:10:52.432Z,5.00
2023-01-27T02:13:19.324Z,4.90
2023-01-27T02:15:46.039Z,4.90
2023-01-27T02:18:14.385Z,5.00
2023-01-27T02:20:44.061Z,5.00
2023-01-27T02:23:11.426Z,5.00
2023-01-27T02:25:57.104Z,5.00
2023-01-27T02:28:28.349Z,5.00
2023-01-27T02:30:55.579Z,5.10
2023-01-27T02:33:22.527Z,5.00
2023-01-27T02:35:55.610Z,5.00
2023-01-27T02:38:23.246Z,5.00
2023-01-27T02:40:51.296Z,5.00
2023-01-27T02:43:18.857Z,5.00
2023-01-27T02:45:46.307Z,5.00
2023-01-27T02:48:13.437Z,5.00
2023-01-27T02:50:40.267Z,5.00
2023-01-27T02:53:07.408Z,5.00
2023-01-27T02:55:36.372Z,5.00
2023-01-27T02:58:03.816Z,5.00
2023-01-27T03:00:38.158Z,5.00
2023-01-27T03:03:05.657Z,5.00
2023-01-27T03:05:32.446Z,5.00
2023-01-27T03:07:59.232Z,5.00
2023-01-27T03:10:26.113Z,5.00
2023-01-27T03:12:52.947Z,5.00
2023-01-27T03:15:38.579Z,5.00
2023-01-27T03:18:09.631Z,5.00
2023-01-27T03:20:36.463Z,4.90
2023-01-27T03:23:03.614Z,5.00
2023-01-27T03:25:30.714Z,4.90
2023-01-27T03:27:57.543Z,4.90
2023-01-27T03:30:47.548Z,4.90
2023-01-27T03:33:19.214Z,4.80
2023-01-27T03:36:11.161Z,4.80
2023-01-27T03:39:03.532Z,4.80
2023-01-27T03:41:49.061Z,4.80
2023-01-27T03:44:34.828Z,4.80
2023-01-27T03:47:01.559Z,4.80
2023-01-27T03:49:28.285Z,4.80
2023-01-27T03:51:55.555Z,4.70
2023-01-27T03:54:22.272Z,4.70
2023-01-27T03:56:49.084Z,4.70
2023-01-27T03:59:17.371Z,4.80
2023-01-27T04:01:44.623Z,4.80
2023-01-27T04:04:30.150Z,4.80
2023-01-27T04:07:02.756Z,4.80
2023-01-27T04:09:34.369Z,4.80
2023-01-27T04:12:02.250Z,4.80
2023-01-27T04:14:34.384Z,4.80
2023-01-27T04:17:02.461Z,4.80
2023-01-27T04:19:29.537Z,4.80
2023-01-27T04:21:56.892Z,4.80
2023-01-27T04:24:24.161Z,4.70
2023-01-27T04:27:01.243Z,4.70
2023-01-27T04:29:29.139Z,4.70
2023-01-27T04:32:19.950Z,4.70
2023-01-27T04:35:07.331Z,4.70
2023-01-27T04:37:34.606Z,4.70
2023-01-27T04:40:01.418Z,4.70
2023-01-27T04:42:28.132Z,4.70
2023-01-27T04:44:54.904Z,4.70
2023-01-27T04:47:22.711Z,4.60
2023-01-27T04:49:49.393Z,4.60
2023-01-27T04:52:16.150Z,4.60
2023-01-27T04:54:42.875Z,4.60
2023-01-27T04:57:10.448Z,4.60
2023-01-27T04:59:37.152Z,4.60
2023-01-27T05:02:04.663Z,4.60
2023-01-27T05:04:31.544Z,4.60
2023-01-27T05:06:58.658Z,4.60
2023-01-27T05:09:25.504Z,4.60
2023-01-27T05:11:52.238Z,4.60
2023-01-27T05:14:19.592Z,4.60
2023-01-27T05:16:46.323Z,4.60
2023-01-27T05:19:13.083Z,4.60
2023-01-27T05:21:40.001Z,4.60
2023-01-27T05:24:11.090Z,4.60
2023-01-27T05:26:38.045Z,4.60
2023-01-27T05:29:04.771Z,4.60
2023-01-27T05:31:32.021Z,4.60
2023-01-27T05:33:59.941Z,4.70
2023-01-27T05:36:27.142Z,4.60
2023-01-27T05:38:54.592Z,4.60
2023-01-27T05:41:21.823Z,4.60
2023-01-27T05:43:52.175Z,4.50
2023-01-27T05:46:20.366Z,4.50
2023-01-27T05:48:48.425Z,4.50
2023-01-27T05:51:15.912Z,4.50
2023-01-27T05:53:48.863Z,4.50
2023-01-27T05:56:16.955Z,4.50
2023-01-27T05:58:44.274Z,4.60
2023-01-27T06:01:11.007Z,4.50
2023-01-27T06:03:38.424Z,4.40
2023-01-27T06:06:05.869Z,4.40
2023-01-27T06:08:32.871Z,4.40
2023-01-27T06:10:59.920Z,4.40
2023-01-27T06:13:26.632Z,4.40
2023-01-27T06:15:54.935Z,4.40
2023-01-27T06:18:21.873Z,4.30
2023-01-27T06:20:48.633Z,4.40
2023-01-27T06:23:15.991Z,4.30
2023-01-27T06:25:44.149Z,4.30
2023-01-27T06:28:17.150Z,4.30
2023-01-27T06:30:53.930Z,4.40
2023-01-27T06:33:20.936Z,4.30
2023-01-27T06:35:47.893Z,4.30
2023-01-27T06:38:15.673Z,4.30
2023-01-27T06:40:43.171Z,4.40
2023-01-27T06:43:16.564Z,4.40
2023-01-27T06:45:43.420Z,4.30
2023-01-27T06:48:11.259Z,4.30
2023-01-27T06:50:38.099Z,4.30
2023-01-27T06:53:05.959Z,4.40
2023-01-27T06:55:41.406Z,4.40
2023-01-27T06:58:26.096Z,4.40
2023-01-27T07:00:53.763Z,4.40
2023-01-27T07:03:20.819Z,4.30
2023-01-27T07:05:47.551Z,4.30
2023-01-27T07:08:14.329Z,4.30
2023-01-27T07:10:41.784Z,4.20
2023-01-27T07:13:10.363Z,4.20
2023-01-27T07:15:37.425Z,4.20
2023-01-27T07:18:04.423Z,4.20
2023-01-27T07:20:31.776Z,4.20
2023-01-27T07:22:59.508Z,4.20
2023-01-27T07:25:26.942Z,4.20
2023-01-27T07:27:53.767Z,4.20
2023-01-27T07:30:20.558Z,4.20
2023-01-27T07:32:47.503Z,4.20
2023-01-27T07:35:14.367Z,4.20
2023-01-27T07:37:41.504Z,4.20
2023-01-27T07:40:10.250Z,4.20
2023-01-27T07:42:37.014Z,4.30
2023-01-27T07:45:04.068Z,4.30
2023-01-27T07:47:30.894Z,4.30
2023-01-27T07:49:57.961Z,4.40
2023-01-27T07:52:24.837Z,4.30
2023-01-27T07:54:51.629Z,4.30
2023-01-27T07:57:18.405Z,4.30
2023-01-27T07:59:45.153Z,4.30
2023-01-27T08:02:22.149Z,4.30
2023-01-27T08:04:53.281Z,4.20
2023-01-27T08:07:20.706Z,4.10
2023-01-27T08:09:47.674Z,4.10
2023-01-27T08:12:14.496Z,4.10
2023-01-27T08:14:41.251Z,4.10
2023-01-27T08:17:07.980Z,4.10
2023-01-27T08:19:34.785Z,4.10
2023-01-27T08:22:01.651Z,4.10
2023-01-27T08:24:28.473Z,4.10
2023-01-27T08:26:55.387Z,4.10
2023-01-27T08:29:22.414Z,4.10
2023-01-27T08:31:49.230Z,4.10
2023-01-27T08:34:17.007Z,4.10
2023-01-27T08:36:43.841Z,4.10
2023-01-27T08:39:11.384Z,4.10
2023-01-27T08:41:38.240Z,4.20
2023-01-27T08:44:05.206Z,4.20
2023-01-27T08:46:32.102Z,4.20
2023-01-27T08:48:58.975Z,4.20
2023-01-27T08:51:25.840Z,4.20
2023-01-27T08:53:53.657Z,4.20
2023-01-27T08:56:20.939Z,4.20
2023-01-27T08:58:48.581Z,4.20
2023-01-27T09:01:16.042Z,4.30
2023-01-27T09:03:42.969Z,4.30
2023-01-27T09:06:10.610Z,4.30
2023-01-27T09:08:37.468Z,4.30
2023-01-27T09:11:08.091Z,4.30
2023-01-27T09:13:39.775Z,4.30
2023-01-27T09:16:07.319Z,4.30
2023-01-27T09:18:34.719Z,4.30
2023-01-27T09:21:05.582Z,4.30
2023-01-27T09:23:33.416Z,4.30
2023-01-27T09:26:00.388Z,4.40
2023-01-27T09:28:27.288Z,4.30
2023-01-27T09:30:57.042Z,4.30
2023-01-27T09:33:25.908Z,4.30
2023-01-27T09:36:14.652Z,4.20
2023-01-27T09:38:46.796Z,4.20
2023-01-27T09:41:17.564Z,4.20
2023-01-27T09:43:44.293Z,4.20
2023-01-27T09:46:29.957Z,4.20
2023-01-27T09:49:02.749Z,4.20
2023-01-27T09:51:35.599Z,4.30
2023-01-27T09:54:20.215Z,4.30
2023-01-27T09:57:13.310Z,4.30
2023-01-27T09:59:46.176Z,4.20
2023-01-27T10:02:18.983Z,4.20
2023-01-27T10:05:01.119Z,4.20
2023-01-27T10:08:00.365Z,4.20
2023-01-27T10:10:36.220Z,4.20
2023-01-27T10:13:12.189Z,4.20
2023-01-27T10:16:04.371Z,4.20
2023-01-27T10:18:34.157Z,4.30
2023-01-27T10:21:09.573Z,4.10
2023-01-27T10:23:48.717Z,4.20
2023-01-27T10:26:35.308Z,4.20
2023-01-27T10:29:11.306Z,4.20
2023-01-27T10:31:43.580Z,4.20
2023-01-27T10:34:23.807Z,4.20
2023-01-27T10:37:04.610Z,4.20
2023-01-27T10:39:55.480Z,4.20
2023-01-27T10:42:33.430Z,4.10
2023-01-27T10:45:00.182Z,4.10
2023-01-27T10:47:36.098Z,4.10
2023-01-27T10:50:11.861Z,4.10
2023-01-27T10:52:48.509Z,4.10
2023-01-27T10:55:18.308Z,4.10
2023-01-27T10:58:05.325Z,4.10
2023-01-27T11:01:13.286Z,4.20
2023-01-27T11:03:29.730Z,4.10
2023-01-27T11:06:02.869Z,4.20
2023-01-27T11:08:34.174Z,4.20
2023-01-27T11:11:21.282Z,4.20
2023-01-27T11:13:48.981Z,4.20
2023-01-27T11:16:16.994Z,4.20
2023-01-27T11:18:46.402Z,4.30
2023-01-27T11:21:17.682Z,4.30
2023-01-27T11:23:46.812Z,4.20
2023-01-27T11:26:24.171Z,4.30
2023-01-27T11:28:54.116Z,4.20
2023-01-27T11:31:20.888Z,4.30
2023-01-27T11:34:02.998Z,4.30
2023-01-27T11:36:29.984Z,4.30
2023-01-27T11:38:58.195Z,4.40
2023-01-27T11:41:25.528Z,4.40
2023-01-27T11:43:52.382Z,4.30
2023-01-27T11:46:21.961Z,4.30
2023-01-27T11:48:50.168Z,4.10
2023-01-27T11:51:21.573Z,4.20
2023-01-27T11:53:51.743Z,4.20
2023-01-27T11:56:19.098Z,4.20
2023-01-27T11:58:49.372Z,4.20
2023-01-27T12:01:21.690Z,4.20
2023-01-27T12:04:01.348Z,4.20
2023-01-27T12:06:47.101Z,4.20
2023-01-27T12:09:33.949Z,4.20
2023-01-27T12:12:15.956Z,4.10
2023-01-27T12:14:50.453Z,4.10
2023-01-27T12:17:26.448Z,4.10
2023-01-27T12:19:55.944Z,4.00
2023-01-27T12:22:22.710Z,4.00
2023-01-27T12:24:52.445Z,4.10
2023-01-27T12:27:27.309Z,4.10
2023-01-27T12:29:58.710Z,4.10
2023-01-27T12:32:39.710Z,4.00
2023-01-27T12:35:07.360Z,4.10
2023-01-27T12:37:38.606Z,4.20
2023-01-27T12:40:16.785Z,4.10
2023-01-27T12:42:47.521Z,4.10
2023-01-27T12:45:20.574Z,4.00
2023-01-27T12:47:56.597Z,4.00
2023-01-27T12:50:24.791Z,4.00
2023-01-27T12:53:03.123Z,4.00
2023-01-27T12:55:40.339Z,4.10
2023-01-27T12:58:22.692Z,4.10
2023-01-27T13:00:49.490Z,4.10
2023-01-27T13:03:17.930Z,4.10
2023-01-27T13:05:45.755Z,4.10
2023-01-27T13:08:18.067Z,4.10
2023-01-27T13:11:01.635Z,4.00
2023-01-27T13:13:29.299Z,4.00
2023-01-27T13:16:05.735Z,4.10
2023-01-27T13:18:33.442Z,4.10
2023-01-27T13:21:15.605Z,4.10
2023-01-27T13:23:42.419Z,4.10
2023-01-27T13:26:09.132Z,4.10
2023-01-27T13:28:51.619Z,4.10
2023-01-27T13:31:22.800Z,4.10
2023-01-27T13:34:13.369Z,4.10
2023-01-27T13:37:00.998Z,4.00
2023-01-27T13:39:33.872Z,4.00
2023-01-27T13:42:00.563Z,4.00
2023-01-27T13:44:39.101Z,4.00
2023-01-27T13:47:09.449Z,4.10
2023-01-27T13:49:39.356Z,4.10
2023-01-27T13:52:06.968Z,4.20
2023-01-27T13:54:33.777Z,4.10
2023-01-27T13:57:00.536Z,4.00
2023-01-27T13:59:33.319Z,4.00
2023-01-27T14:02:00.078Z,4.00
2023-01-27T14:04:34.344Z,4.00
2023-01-27T14:07:19.821Z,4.00
2023-01-27T14:09:55.697Z,4.10
2023-01-27T14:12:22.381Z,4.10
2023-01-27T14:14:58.597Z,4.00
2023-01-27T14:17:41.002Z,4.10
2023-01-27T14:20:16.521Z,4.00
2023-01-27T14:23:04.234Z,4.10
2023-01-27T14:25:37.022Z,4.00
2023-01-27T14:28:20.975Z,4.10
2023-01-27T14:31:11.138Z,4.10
2023-01-27T14:33:38.245Z,4.00
2023-01-27T14:36:21.465Z,4.00
2023-01-27T14:38:51.242Z,4.00
2023-01-27T14:41:36.934Z,4.00
2023-01-27T14:44:26.841Z,3.90
2023-01-27T14:47:16.419Z,3.90
2023-01-27T14:50:01.981Z,4.00
2023-01-27T14:52:31.771Z,3.90
2023-01-27T14:55:17.332Z,4.00
2023-01-27T14:57:53.235Z,4.00
2023-01-27T15:00:19.981Z,4.00
2023-01-27T15:02:52.961Z,4.00
2023-01-27T15:05:22.725Z,3.90
2023-01-27T15:08:08.762Z,3.90
2023-01-27T15:10:41.225Z,3.80
2023-01-27T15:13:23.396Z,3.80
2023-01-27T15:16:12.980Z,3.80
2023-01-27T15:18:42.812Z,3.70
2023-01-27T15:21:28.868Z,3.80
2023-01-27T15:24:14.998Z,3.80
2023-01-27T15:26:42.066Z,3.70
2023-01-27T15:29:13.021Z,3.60
2023-01-27T15:31:39.891Z,3.60
2023-01-27T15:34:06.784Z,3.60
2023-01-27T15:36:37.704Z,3.60
2023-01-27T15:39:10.765Z,3.50
2023-01-27T15:41:57.799Z,3.40
2023-01-27T15:44:24.581Z,3.40
2023-01-27T15:46:52.623Z,3.40
2023-01-27T15:49:30.318Z,3.40
2023-01-27T15:52:08.010Z,3.30
2023-01-27T15:54:34.947Z,3.30
2023-01-27T15:57:05.336Z,3.30
2023-01-27T15:59:57.128Z,3.30
2023-01-27T16:02:26.921Z,3.20
2023-01-27T16:05:04.027Z,3.20
2023-01-27T16:07:35.350Z,3.20
2023-01-27T16:10:02.854Z,3.20
2023-01-27T16:12:32.108Z,3.20
2023-01-27T16:15:02.012Z,3.10
2023-01-27T16:17:32.112Z,3.10
2023-01-27T16:20:05.773Z,3.20
2023-01-27T16:22:35.064Z,3.10
2023-01-27T16:25:11.238Z,3.10
2023-01-27T16:27:48.169Z,3.10
2023-01-27T16:30:20.300Z,3.10
2023-01-27T16:33:22.542Z,3.00
2023-01-27T16:35:52.717Z,3.00
2023-01-27T16:38:22.271Z,3.00
2023-01-27T16:40:52.035Z,3.00
2023-01-27T16:43:21.540Z,3.00
2023-01-27T16:45:50.034Z,2.90
2023-01-27T16:48:22.401Z,2.90
2023-01-27T16:50:49.667Z,2.90
2023-01-27T16:53:19.560Z,2.90
2023-01-27T16:56:00.256Z,2.90
2023-01-27T16:58:46.632Z,2.90
2023-01-27T17:01:45.201Z,2.90
2023-01-27T17:04:20.414Z,2.90
2023-01-27T17:06:52.506Z,2.90
2023-01-27T17:09:23.619Z,2.90
2023-01-27T17:11:50.813Z,2.90
2023-01-27T17:14:29.929Z,2.90
2023-01-27T17:17:02.296Z,2.90
2023-01-27T17:19:31.465Z,2.90
2023-01-27T17:21:59.004Z,2.90
2023-01-27T17:24:33.197Z,2.90
2023-01-27T17:26:59.917Z,2.90
2023-01-27T17:29:32.253Z,2.90
2023-01-27T17:31:59.124Z,3.00
2023-01-27T17:34:25.978Z,2.90
2023-01-27T17:37:11.586Z,2.90
2023-01-27T17:39:39.367Z,2.90
2023-01-27T17:42:06.557Z,2.90
2023-01-27T17:44:33.633Z,2.90
2023-01-27T17:47:01.486Z,2.90
2023-01-27T17:49:28.779Z,2.90
2023-01-27T17:51:57.519Z,2.90
2023-01-27T17:54:43.416Z,2.90
2023-01-27T17:57:21.308Z,2.80
2023-01-27T17:59:59.713Z,2.80
2023-01-27T18:02:28.830Z,2.80
2023-01-27T18:04:58.134Z,2.80
2023-01-27T18:07:25.555Z,2.70
2023-01-27T18:09:53.501Z,2.70
2023-01-27T18:12:36.713Z,2.80
2023-01-27T18:15:33.358Z,2.80
2023-01-27T18:18:00.497Z,2.80
2023-01-27T18:20:28.671Z,2.80
2023-01-27T18:22:56.468Z,2.80
2023-01-27T18:25:23.939Z,2.80
2023-01-27T18:27:53.241Z,2.80
2023-01-27T18:30:21.445Z,2.90
2023-01-27T18:32:50.386Z,2.90
2023-01-27T18:35:25.628Z,2.90
2023-01-27T18:37:54.541Z,2.80
2023-01-27T18:40:24.439Z,2.80
2023-01-27T18:42:54.418Z,2.80
2023-01-27T18:45:21.203Z,2.90
2023-01-27T18:47:47.984Z,2.90
2023-01-27T18:50:19.446Z,2.90
2023-01-27T18:52:46.965Z,2.80
2023-01-27T18:55:14.096Z,2.80
2023-01-27T18:57:40.999Z,2.80
2023-01-27T19:00:10.416Z,2.80
2023-01-27T19:02:37.417Z,2.90
2023-01-27T19:05:04.469Z,2.80
2023-01-27T19:07:32.692Z,2.80
2023-01-27T19:09:59.556Z,2.90
2023-01-27T19:12:26.329Z,2.90
2023-01-27T19:14:53.050Z,2.90
2023-01-27T19:17:22.679Z,2.90
2023-01-27T19:19:49.647Z,2.90
2023-01-27T19:22:17.394Z,2.90
2023-01-27T19:24:45.497Z,2.90
2023-01-27T19:27:13.399Z,2.90
2023-01-27T19:29:40.243Z,2.90
2023-01-27T19:32:10.408Z,2.80
2023-01-27T19:34:37.151Z,2.90
2023-01-27T19:37:03.983Z,2.80
2023-01-27T19:39:30.674Z,2.80
2023-01-27T19:41:57.477Z,2.80
2023-01-27T19:44:24.216Z,2.80
2023-01-27T19:46:51.015Z,2.90
2023-01-27T19:49:18.500Z,2.80
2023-01-27T19:51:45.426Z,2.80
2023-01-27T19:54:12.142Z,2.80
2023-01-27T19:56:39.002Z,2.80
2023-01-27T19:59:05.709Z,2.80
2023-01-27T20:01:32.492Z,2.80
2023-01-27T20:03:59.330Z,2.80
2023-01-27T20:06:27.269Z,2.80
2023-01-27T20:08:55.314Z,2.80
2023-01-27T20:11:42.479Z,2.80
2023-01-27T20:14:12.617Z,2.80
2023-01-27T20:16:39.670Z,2.80
2023-01-27T20:19:06.644Z,2.80
2023-01-27T20:21:34.500Z,2.80
2023-01-27T20:24:01.829Z,2.80
2023-01-27T20:26:32.557Z,2.70
2023-01-27T20:28:59.754Z,2.80
2023-01-27T20:31:26.699Z,2.70
2023-01-27T20:33:53.648Z,2.70
2023-01-27T20:36:21.667Z,2.70
2023-01-27T20:38:48.775Z,2.70
2023-01-27T20:41:17.115Z,2.70
2023-01-27T20:43:43.921Z,2.60
2023-01-27T20:46:18.073Z,2.70
2023-01-27T20:48:44.873Z,2.60
2023-01-27T20:51:13.316Z,2.60
2023-01-27T20:53:45.084Z,2.50
2023-01-27T20:56:16.303Z,2.60
2023-01-27T20:58:43.128Z,2.50
2023-01-27T21:01:11.845Z,2.50
2023-01-27T21:03:39.063Z,2.50
2023-01-27T21:06:06.235Z,2.50
2023-01-27T21:08:33.004Z,2.50
2023-01-27T21:11:00.836Z,2.50
2023-01-27T21:13:28.217Z,2.60
2023-01-27T21:15:56.487Z,2.50
2023-01-27T21:18:23.885Z,2.50
2023-01-27T21:20:51.755Z,2.50
2023-01-27T21:23:20.694Z,2.50
2023-01-27T21:25:47.369Z,2.60
2023-01-27T21:28:14.536Z,2.50
2023-01-27T21:30:41.321Z,2.40
2023-01-27T21:33:08.178Z,2.50
2023-01-27T21:35:34.895Z,2.40
2023-01-27T21:38:01.591Z,2.40
2023-01-27T21:40:28.366Z,2.50
2023-01-27T21:43:13.811Z,2.40
2023-01-27T21:45:40.611Z,2.40
2023-01-27T21:48:07.335Z,2.40
2023-01-27T21:50:34.041Z,2.40
2023-01-27T21:53:00.788Z,2.40
2023-01-27T21:55:28.493Z,2.40
2023-01-27T21:57:55.744Z,2.40
2023-01-27T22:00:24.599Z,2.40
2023-01-27T22:02:55.335Z,2.40
2023-01-27T22:05:22.236Z,2.40
2023-01-27T22:07:49.513Z,2.40
2023-01-27T22:10:17.953Z,2.50
2023-01-27T22:12:45.063Z,2.40
2023-01-27T22:15:13.120Z,2.40
2023-01-27T22:17:40.009Z,2.40
2023-01-27T22:20:07.048Z,2.40
2023-01-27T22:22:33.946Z,2.40
2023-01-27T22:25:00.680Z,2.40
2023-01-27T22:27:27.713Z,2.40
2023-01-27T22:29:54.403Z,2.40
2023-01-27T22:32:21.227Z,2.50
2023-01-27T22:34:48.098Z,2.40
2023-01-27T22:37:14.852Z,2.40
2023-01-27T22:39:42.341Z,2.40
2023-01-27T22:42:09.284Z,2.40
2023-01-27T22:44:36.042Z,2.40
2023-01-27T22:47:02.787Z,2.40
2023-01-27T22:49:29.522Z,2.40
2023-01-27T22:51:56.244Z,2.30
2023-01-27T22:54:23.020Z,2.40
2023-01-27T22:56:49.747Z,2.40
2023-01-27T22:59:16.449Z,2.50
2023-01-27T23:01:43.370Z,2.40
2023-01-27T23:04:14.188Z,2.50
2023-01-27T23:06:40.941Z,2.50
2023-01-27T23:09:07.671Z,2.50
2023-01-27T23:11:34.511Z,2.50
2023-01-27T23:14:01.988Z,2.50
2023-01-27T23:16:28.887Z,2.50
2023-01-27T23:18:55.650Z,2.50
2023-01-27T23:21:22.440Z,2.50
2023-01-27T23:23:50.066Z,2.40
2023-01-27T23:26:17.079Z,2.40
2023-01-27T23:28:43.921Z,2.40
2023-01-27T23:31:11.651Z,2.30
2023-01-27T23:33:39.904Z,2.30
2023-01-27T23:36:08.223Z,2.30
2023-01-27T23:38:35.750Z,2.30
2023-01-27T23:41:03.819Z,2.30
2023-01-27T23:43:33.524Z,2.30
2023-01-27T23:46:00.607Z,2.30
2023-01-27T23:48:27.600Z,2.20
2023-01-27T23:50:54.828Z,2.20
2023-01-27T23:53:21.843Z,2.20
2023-01-27T23:55:56.040Z,2.20
2023-01-27T23:58:22.851Z,2.20
